Terminal Aerodrome Forecast
Issued by NWS Corpus Christi, TX

Home | Current Version | Previous Version | Text Only | Print | Product List | Glossary On
Versions: 1 2 3 4 5 6 7 8 9 10 11 12 13 14 15
000
FTUS44 KCRP 292300
TAFCRP
TAF
KCRP 292340Z 3000/3024 10012KT P6SM SCT028 BKN200
     FM300300 11008KT P6SM SCT018 BKN200
     FM300800 14004KT P6SM VCSH SCT015 BKN060 PROB30 3009/3014 -TSRA
      BKN015CB
     FM301400 16007KT P6SM VCSH BKN022 BKN050
      TEMPO 3014/3018 5SM -TSRA BKN018CB
     FM301800 12013KT P6SM SCT035 BKN150=

USA.gov is the U.S. government's official web portal to all federal, state and local government web resources and services.